createdAt,value
2022-08-26T00:00:21.677Z,62.78
2022-08-26T00:02:51.691Z,62.47
2022-08-26T00:05:25.412Z,60.63
2022-08-26T00:08:07.816Z,60.33
2022-08-26T00:10:44.526Z,59.72
2022-08-26T00:13:21.532Z,60.28
2022-08-26T00:15:59.676Z,60.88
2022-08-26T00:18:40.782Z,60.02
2022-08-26T00:21:11.484Z,60.84
2022-08-26T00:23:59.759Z,61.32
2022-08-26T00:26:40.204Z,63.44
2022-08-26T00:29:11.693Z,62.66
2022-08-26T00:31:45.199Z,60.20
2022-08-26T00:34:21.790Z,60.37
2022-08-26T00:37:09.015Z,60.84
2022-08-26T00:39:38.415Z,61.39
2022-08-26T00:42:08.712Z,61.62
2022-08-26T00:44:36.523Z,61.40
2022-08-26T00:47:09.191Z,62.61
2022-08-26T00:49:47.529Z,63.04
2022-08-26T00:52:30.745Z,63.77
2022-08-26T00:55:09.264Z,62.54
2022-08-26T00:57:42.611Z,61.22
2022-08-26T01:00:17.121Z,60.93
2022-08-26T01:02:48.029Z,60.54
2022-08-26T01:05:17.438Z,61.19
2022-08-26T01:07:47.288Z,61.67
2022-08-26T01:10:36.114Z,61.98
2022-08-26T01:13:10.362Z,61.49
2022-08-26T01:15:46.846Z,63.01
2022-08-26T01:18:14.788Z,63.81
2022-08-26T01:20:46.628Z,63.38
2022-08-26T01:23:15.209Z,61.87
2022-08-26T01:25:45.859Z,61.24
2022-08-26T01:28:18.993Z,61.44
2022-08-26T01:30:51.051Z,61.99
2022-08-26T01:33:26.980Z,62.26
2022-08-26T01:35:57.154Z,62.76
2022-08-26T01:38:28.047Z,62.98
2022-08-26T01:41:02.809Z,64.00
2022-08-26T01:43:44.869Z,63.31
2022-08-26T01:46:12.648Z,60.80
2022-08-26T01:48:42.955Z,59.52
2022-08-26T01:51:11.119Z,60.21
2022-08-26T01:53:41.760Z,60.59
2022-08-26T01:56:18.915Z,62.59
2022-08-26T01:59:03.616Z,63.18
2022-08-26T02:01:34.941Z,64.11
2022-08-26T02:04:12.002Z,64.55
2022-08-26T02:06:45.066Z,63.74
2022-08-26T02:09:41.130Z,62.38
2022-08-26T02:12:13.384Z,61.88
2022-08-26T02:15:13.543Z,62.31
2022-08-26T02:17:43.604Z,62.83
2022-08-26T02:20:16.479Z,63.34
2022-08-26T02:22:52.033Z,64.03
2022-08-26T02:25:47.958Z,64.67
2022-08-26T02:28:26.786Z,63.90
2022-08-26T02:30:55.617Z,62.48
2022-08-26T02:33:32.231Z,62.28
2022-08-26T02:36:02.967Z,62.88
2022-08-26T02:39:01.729Z,60.44
2022-08-26T02:41:29.627Z,62.72
2022-08-26T02:44:00.255Z,63.94
2022-08-26T02:46:37.627Z,64.80
2022-08-26T02:49:20.123Z,65.40
2022-08-26T02:51:49.737Z,63.74
2022-08-26T02:54:21.474Z,60.92
2022-08-26T02:56:48.969Z,61.31
2022-08-26T02:59:16.698Z,61.80
2022-08-26T03:01:51.061Z,62.08
2022-08-26T03:04:18.961Z,62.13
2022-08-26T03:06:52.886Z,60.77
2022-08-26T03:09:58.185Z,64.20
2022-08-26T03:12:25.875Z,62.95
2022-08-26T03:14:58.329Z,63.97
2022-08-26T03:17:26.960Z,62.15
2022-08-26T03:20:17.479Z,62.38
2022-08-26T03:22:48.807Z,62.44
2022-08-26T03:25:19.687Z,62.85
2022-08-26T03:27:50.020Z,63.83
2022-08-26T03:30:39.277Z,62.93
2022-08-26T03:33:18.098Z,65.23
2022-08-26T03:35:50.704Z,64.20
2022-08-26T03:38:28.576Z,62.52
2022-08-26T03:41:00.744Z,62.12
2022-08-26T03:43:52.031Z,62.38
2022-08-26T03:46:21.041Z,62.71
2022-08-26T03:48:53.732Z,63.01
2022-08-26T03:51:24.714Z,63.72
2022-08-26T03:53:55.336Z,64.26
2022-08-26T03:56:30.828Z,64.56
2022-08-26T03:59:02.487Z,64.70
2022-08-26T04:01:47.355Z,62.52
2022-08-26T04:04:24.683Z,62.63
2022-08-26T04:06:56.732Z,62.35
2022-08-26T04:09:27.687Z,60.42
2022-08-26T04:11:58.998Z,62.74
2022-08-26T04:15:19.852Z,63.83
2022-08-26T04:18:38.102Z,64.54
2022-08-26T04:22:36.167Z,62.03
2022-08-26T04:26:34.510Z,60.95
2022-08-26T04:30:10.833Z,60.90
2022-08-26T04:33:12.884Z,61.46
2022-08-26T04:35:50.144Z,60.29
2022-08-26T04:38:53.423Z,60.71
2022-08-26T04:41:34.956Z,61.96
2022-08-26T04:44:25.851Z,62.10
2022-08-26T04:47:07.961Z,61.16
2022-08-26T04:49:53.575Z,58.43
2022-08-26T04:52:48.235Z,58.17
2022-08-26T04:55:22.036Z,57.18
2022-08-26T04:58:13.357Z,57.34
2022-08-26T05:00:50.114Z,55.67
2022-08-26T05:03:31.186Z,55.50
2022-08-26T05:06:31.449Z,55.58
2022-08-26T05:09:21.835Z,55.76
2022-08-26T05:12:07.815Z,55.90
2022-08-26T05:14:53.574Z,55.58
2022-08-26T05:17:29.971Z,55.21
2022-08-26T05:20:04.082Z,55.43
2022-08-26T05:22:31.790Z,55.57
2022-08-26T05:24:59.582Z,55.24
2022-08-26T05:27:57.104Z,55.41
2022-08-26T05:30:33.330Z,54.71
2022-08-26T05:33:07.586Z,54.17
2022-08-26T05:36:00.341Z,53.48
2022-08-26T05:38:30.365Z,52.97
2022-08-26T05:41:01.079Z,52.41
2022-08-26T05:43:35.320Z,52.57
2022-08-26T05:46:07.086Z,52.29
2022-08-26T05:48:41.175Z,52.24
2022-08-26T05:51:17.300Z,51.63
2022-08-26T05:53:54.761Z,51.41
2022-08-26T05:56:38.937Z,50.69
2022-08-26T05:59:14.613Z,49.26
2022-08-26T06:01:50.213Z,49.21
2022-08-26T06:04:29.322Z,49.40
2022-08-26T06:07:03.389Z,48.12
2022-08-26T06:09:50.931Z,47.53
2022-08-26T06:12:25.428Z,46.64
2022-08-26T06:14:57.780Z,46.04
2022-08-26T06:17:31.326Z,45.72
2022-08-26T06:20:04.931Z,45.10
2022-08-26T06:23:03.243Z,44.94
2022-08-26T06:25:42.098Z,44.96
2022-08-26T06:28:10.904Z,44.83
2022-08-26T06:30:43.381Z,45.10
2022-08-26T06:33:12.126Z,44.94
2022-08-26T06:35:54.565Z,44.38
2022-08-26T06:38:44.575Z,44.68
2022-08-26T06:41:22.828Z,44.50
2022-08-26T06:43:53.559Z,43.54
2022-08-26T06:46:24.442Z,43.80
2022-08-26T06:48:54.233Z,43.86
2022-08-26T06:51:29.878Z,42.34
2022-08-26T06:54:23.888Z,42.45
2022-08-26T06:56:51.718Z,43.11
2022-08-26T06:59:22.452Z,42.68
2022-08-26T07:02:10.201Z,43.42
2022-08-26T07:04:44.271Z,44.39
2022-08-26T07:07:22.016Z,43.37
2022-08-26T07:10:15.167Z,42.78
2022-08-26T07:12:47.288Z,43.77
2022-08-26T07:15:17.061Z,44.51
2022-08-26T07:17:44.993Z,43.45
2022-08-26T07:20:12.593Z,44.19
2022-08-26T07:22:45.574Z,43.94
2022-08-26T07:25:13.207Z,44.60
2022-08-26T07:27:43.664Z,45.09
2022-08-26T07:30:16.317Z,44.56
2022-08-26T07:32:46.990Z,43.36
2022-08-26T07:35:14.506Z,45.23
2022-08-26T07:37:47.432Z,45.01
2022-08-26T07:40:26.130Z,44.24
2022-08-26T07:42:56.315Z,43.48
2022-08-26T07:45:24.171Z,44.66
2022-08-26T07:48:00.519Z,44.06
2022-08-26T07:50:49.403Z,42.79
2022-08-26T07:53:18.236Z,43.31
2022-08-26T07:55:49.499Z,44.84
2022-08-26T07:58:17.818Z,43.66
2022-08-26T08:00:48.284Z,43.25
2022-08-26T08:03:21.240Z,46.05
2022-08-26T08:06:02.964Z,44.85
2022-08-26T08:08:35.395Z,43.42
2022-08-26T08:11:02.808Z,45.12
2022-08-26T08:13:31.970Z,45.96
2022-08-26T08:16:01.782Z,45.20
2022-08-26T08:18:32.133Z,44.23
2022-08-26T08:21:21.368Z,44.02
2022-08-26T08:23:57.561Z,43.96
2022-08-26T08:26:41.532Z,42.69
2022-08-26T08:29:12.438Z,41.80
2022-08-26T08:31:59.862Z,41.71
2022-08-26T08:34:33.302Z,40.96
2022-08-26T08:37:04.397Z,38.21
2022-08-26T08:39:38.532Z,38.55
2022-08-26T08:42:30.923Z,42.55
2022-08-26T08:45:06.691Z,40.56
2022-08-26T08:47:56.506Z,33.88
2022-08-26T08:50:38.056Z,33.73
2022-08-26T08:53:25.278Z,31.39
2022-08-26T08:56:10.766Z,33.37
2022-08-26T08:59:01.743Z,35.55
2022-08-26T09:02:04.859Z,33.54
2022-08-26T09:05:21.968Z,32.51
2022-08-26T09:08:14.836Z,32.87
2022-08-26T09:10:59.625Z,33.02
2022-08-26T09:13:27.572Z,32.25
2022-08-26T09:16:16.250Z,31.85
2022-08-26T09:19:22.866Z,28.87
2022-08-26T09:21:58.842Z,26.80
2022-08-26T09:24:29.071Z,26.41
2022-08-26T09:26:58.346Z,26.55
2022-08-26T09:29:45.709Z,29.44
2022-08-26T09:32:24.993Z,29.26
2022-08-26T09:34:58.129Z,30.31
2022-08-26T09:37:36.024Z,28.89
2022-08-26T09:40:16.455Z,29.01
2022-08-26T09:43:11.023Z,24.85
2022-08-26T09:45:49.923Z,24.90
2022-08-26T09:48:43.647Z,26.71
2022-08-26T09:51:50.110Z,29.69
2022-08-26T09:54:25.180Z,31.27
2022-08-26T09:57:23.689Z,29.00
2022-08-26T09:59:57.398Z,26.64
2022-08-26T10:02:34.268Z,24.13
2022-08-26T10:05:09.528Z,25.95
2022-08-26T10:08:03.635Z,26.46
2022-08-26T10:10:38.413Z,25.51
2022-08-26T10:13:14.302Z,23.53
2022-08-26T10:15:49.994Z,26.36
2022-08-26T10:18:27.908Z,23.16
2022-08-26T10:21:09.967Z,28.58
2022-08-26T10:26:26.993Z,27.11
2022-08-26T10:29:01.582Z,25.63
2022-08-26T10:31:38.178Z,24.14
2022-08-26T10:34:08.990Z,26.76
2022-08-26T10:37:14.473Z,25.34
2022-08-26T10:39:46.169Z,21.67
2022-08-26T10:42:38.110Z,23.06
2022-08-26T10:45:22.293Z,22.97
2022-08-26T10:48:01.641Z,22.93
2022-08-26T10:50:47.487Z,23.92
2022-08-26T10:53:18.250Z,24.99
2022-08-26T10:56:00.518Z,22.51
2022-08-26T10:58:56.698Z,25.28
2022-08-26T11:01:59.399Z,24.56
2022-08-26T11:04:38.983Z,25.63
2022-08-26T11:07:36.818Z,22.88
2022-08-26T11:10:14.404Z,25.37
2022-08-26T11:12:49.601Z,24.50
2022-08-26T11:15:24.658Z,22.40
2022-08-26T11:17:52.009Z,23.58
2022-08-26T11:20:31.753Z,25.45
2022-08-26T11:23:14.566Z,25.24
2022-08-26T11:26:08.681Z,24.16
2022-08-26T11:28:40.018Z,24.01
2022-08-26T11:31:33.301Z,25.97
2022-08-26T11:34:07.208Z,23.05
2022-08-26T11:36:40.306Z,21.89
2022-08-26T11:39:36.528Z,23.83
2022-08-26T11:42:29.653Z,25.78
2022-08-26T11:44:58.102Z,22.95
2022-08-26T11:47:29.438Z,24.16
2022-08-26T11:50:08.533Z,22.72
2022-08-26T11:52:35.753Z,21.29
2022-08-26T11:55:12.268Z,23.74
2022-08-26T11:57:48.196Z,23.94
2022-08-26T12:00:26.029Z,24.49
2022-08-26T12:02:56.137Z,26.66
2022-08-26T12:05:31.183Z,26.33
2022-08-26T12:08:01.135Z,22.96
2022-08-26T12:10:33.818Z,20.20
2022-08-26T12:13:04.913Z,22.87
2022-08-26T12:15:33.201Z,22.51
2022-08-26T12:18:28.846Z,21.49
2022-08-26T12:21:24.297Z,21.12
2022-08-26T12:23:57.368Z,23.20
2022-08-26T12:26:32.460Z,23.90
2022-08-26T12:29:10.845Z,23.23
2022-08-26T12:31:48.918Z,21.63
2022-08-26T12:34:28.183Z,22.69
2022-08-26T12:37:02.830Z,22.53
2022-08-26T12:39:37.419Z,21.67
2022-08-26T12:42:25.032Z,25.80
2022-08-26T12:44:59.736Z,24.01
2022-08-26T12:47:44.494Z,24.82
2022-08-26T12:50:23.077Z,27.63
2022-08-26T12:53:04.231Z,22.87
2022-08-26T12:55:44.074Z,23.63
2022-08-26T12:58:20.671Z,25.04
2022-08-26T13:01:22.441Z,24.54
2022-08-26T13:03:50.515Z,23.79
2022-08-26T13:06:23.214Z,23.97
2022-08-26T13:09:00.097Z,24.93
2022-08-26T13:11:42.978Z,23.94
2022-08-26T13:14:21.263Z,26.15
2022-08-26T13:16:54.337Z,27.14
2022-08-26T13:19:40.519Z,27.00
2022-08-26T13:22:07.852Z,26.13
2022-08-26T13:24:42.123Z,26.46
2022-08-26T13:27:13.520Z,26.43
2022-08-26T13:29:47.680Z,27.06
2022-08-26T13:32:15.232Z,27.38
2022-08-26T13:34:42.545Z,26.91
2022-08-26T13:37:09.747Z,25.29
2022-08-26T13:39:39.467Z,27.44
2022-08-26T13:42:07.248Z,26.23
2022-08-26T13:44:35.006Z,27.74
2022-08-26T13:47:02.319Z,28.56
2022-08-26T13:49:30.205Z,28.46
2022-08-26T13:51:59.898Z,27.80
2022-08-26T13:54:27.808Z,27.08
2022-08-26T13:56:58.346Z,28.41
2022-08-26T13:59:26.129Z,27.69
2022-08-26T14:02:13.914Z,28.77
2022-08-26T14:04:43.643Z,29.44
2022-08-26T14:07:14.935Z,28.73
2022-08-26T14:09:44.662Z,28.28
2022-08-26T14:12:12.152Z,29.69
2022-08-26T14:14:40.000Z,29.79
2022-08-26T14:17:07.690Z,30.32
2022-08-26T14:19:45.600Z,29.76
2022-08-26T14:22:14.554Z,28.94
2022-08-26T14:24:42.094Z,28.88
2022-08-26T14:27:10.168Z,28.52
2022-08-26T14:29:38.154Z,28.83
2022-08-26T14:32:12.296Z,29.91
2022-08-26T14:34:43.869Z,30.32
2022-08-26T14:37:17.995Z,31.05
2022-08-26T14:40:22.834Z,31.18
2022-08-26T14:43:02.569Z,31.94
2022-08-26T14:48:13.459Z,31.53
2022-08-26T14:50:56.668Z,31.91
2022-08-26T14:53:42.420Z,32.64
2022-08-26T14:56:13.695Z,33.63
2022-08-26T14:58:44.139Z,35.10
2022-08-26T15:01:13.066Z,35.89
2022-08-26T15:03:49.367Z,35.39
2022-08-26T15:06:16.542Z,35.09
2022-08-26T15:08:46.361Z,36.97
2022-08-26T15:11:13.539Z,36.36
2022-08-26T15:13:49.871Z,36.53
2022-08-26T15:16:30.872Z,38.87
2022-08-26T15:19:04.786Z,39.29
2022-08-26T15:21:37.406Z,37.52
2022-08-26T15:24:22.963Z,36.98
2022-08-26T15:26:52.516Z,38.18
2022-08-26T15:29:20.917Z,38.91
2022-08-26T15:31:48.807Z,38.22
2022-08-26T15:34:19.306Z,38.58
2022-08-26T15:36:50.890Z,39.79
2022-08-26T15:39:19.178Z,39.70
2022-08-26T15:41:46.851Z,38.52
2022-08-26T15:44:26.696Z,38.82
2022-08-26T15:46:58.393Z,39.15
2022-08-26T15:49:26.520Z,39.97
2022-08-26T15:51:57.438Z,39.81
2022-08-26T15:54:25.180Z,41.28
2022-08-26T15:56:53.872Z,41.46
2022-08-26T15:59:23.396Z,42.69
2022-08-26T16:02:01.879Z,42.79
2022-08-26T16:04:33.747Z,43.06
2022-08-26T16:07:01.234Z,43.23
2022-08-26T16:09:30.759Z,45.60
2022-08-26T16:11:58.918Z,46.39
2022-08-26T16:14:26.416Z,47.09
2022-08-26T16:16:53.914Z,47.06
2022-08-26T16:19:23.625Z,47.73
2022-08-26T16:21:54.390Z,48.00
2022-08-26T16:24:30.539Z,48.27
2022-08-26T16:27:23.061Z,48.29
2022-08-26T16:29:53.751Z,49.27
2022-08-26T16:32:29.449Z,49.71
2022-08-26T16:35:03.480Z,50.04
2022-08-26T16:37:32.499Z,49.64
2022-08-26T16:40:35.637Z,50.34
2022-08-26T16:43:33.860Z,50.03
2022-08-26T16:46:15.042Z,51.76
2022-08-26T16:48:43.447Z,51.00
2022-08-26T16:51:17.590Z,51.40
2022-08-26T16:53:45.656Z,51.73
2022-08-26T16:56:14.285Z,52.36
2022-08-26T16:58:41.867Z,52.57
2022-08-26T17:01:09.588Z,53.06
2022-08-26T17:03:37.395Z,53.42
2022-08-26T17:06:05.554Z,54.05
2022-08-26T17:08:42.023Z,54.15
2022-08-26T17:11:10.067Z,54.42
2022-08-26T17:13:39.319Z,54.38
2022-08-26T17:16:15.782Z,54.92
2022-08-26T17:18:47.355Z,55.15
2022-08-26T17:21:31.151Z,55.48
2022-08-26T17:24:12.050Z,55.88
2022-08-26T17:26:44.298Z,55.84
2022-08-26T17:30:10.544Z,55.80
2022-08-26T17:32:38.270Z,56.25
2022-08-26T17:35:13.040Z,56.43
2022-08-26T17:38:00.787Z,56.76
2022-08-26T17:40:31.854Z,56.87
2022-08-26T17:42:59.923Z,57.35
2022-08-26T17:45:33.036Z,56.77
2022-08-26T17:48:03.017Z,56.34
2022-08-26T17:50:36.856Z,57.11
2022-08-26T17:53:05.046Z,57.37
2022-08-26T17:55:32.678Z,57.58
2022-08-26T17:58:00.507Z,55.99
2022-08-26T18:00:41.253Z,57.01
2022-08-26T18:03:11.821Z,56.98
2022-08-26T18:05:40.247Z,56.94
2022-08-26T18:08:07.673Z,56.98
2022-08-26T18:10:35.167Z,57.17
2022-08-26T18:13:02.371Z,56.28
2022-08-26T18:15:40.088Z,57.59
2022-08-26T18:18:07.763Z,57.61
2022-08-26T18:20:39.299Z,57.61
2022-08-26T18:23:15.898Z,57.60
2022-08-26T18:25:45.531Z,58.01
2022-08-26T18:28:15.850Z,57.72
2022-08-26T18:30:43.665Z,57.97
2022-08-26T18:33:11.720Z,57.88
2022-08-26T18:35:44.191Z,56.89
2022-08-26T18:38:14.028Z,56.83
2022-08-26T18:40:43.636Z,57.85
2022-08-26T18:43:22.891Z,58.13
2022-08-26T18:46:02.257Z,58.43
2022-08-26T18:48:51.215Z,58.58
2022-08-26T18:51:26.365Z,58.99
2022-08-26T18:53:57.009Z,59.20
2022-08-26T18:56:24.448Z,58.47
2022-08-26T18:58:55.891Z,56.80
2022-08-26T19:01:27.385Z,56.26
2022-08-26T19:03:59.560Z,55.94
2022-08-26T19:06:28.757Z,56.73
2022-08-26T19:08:59.813Z,56.60
2022-08-26T19:11:32.501Z,57.25
2022-08-26T19:14:08.366Z,57.91
2022-08-26T19:16:37.573Z,58.16
2022-08-26T19:19:05.315Z,58.57
2022-08-26T19:21:33.278Z,58.09
2022-08-26T19:24:02.606Z,58.91
2022-08-26T19:26:36.623Z,59.29
2022-08-26T19:29:07.023Z,59.78
2022-08-26T19:31:34.518Z,60.42
2022-08-26T19:34:02.012Z,59.64
2022-08-26T19:36:29.445Z,58.13
2022-08-26T19:38:56.860Z,57.37
2022-08-26T19:41:36.494Z,57.80
2022-08-26T19:44:36.213Z,57.99
2022-08-26T19:47:03.849Z,58.53
2022-08-26T19:49:36.060Z,58.49
2022-08-26T19:52:03.873Z,59.00
2022-08-26T19:54:34.699Z,59.88
2022-08-26T19:57:05.683Z,59.82
2022-08-26T19:59:33.308Z,59.93
2022-08-26T20:02:08.531Z,60.03
2022-08-26T20:04:38.329Z,60.19
2022-08-26T20:07:05.759Z,58.48
2022-08-26T20:09:34.134Z,58.42
2022-08-26T20:12:02.518Z,56.96
2022-08-26T20:14:30.052Z,56.84
2022-08-26T20:16:57.451Z,56.99
2022-08-26T20:19:43.035Z,57.22
2022-08-26T20:22:12.959Z,58.83
2022-08-26T20:24:43.235Z,59.13
2022-08-26T20:27:19.853Z,59.76
2022-08-26T20:29:47.505Z,60.23
2022-08-26T20:32:14.893Z,60.51
2022-08-26T20:34:42.768Z,61.23
2022-08-26T20:37:11.308Z,60.93
2022-08-26T20:39:41.718Z,59.65
2022-08-26T20:42:19.996Z,59.02
2022-08-26T20:44:55.011Z,59.48
2022-08-26T20:47:23.220Z,59.73
2022-08-26T20:50:03.972Z,59.15
2022-08-26T20:52:31.507Z,59.21
2022-08-26T20:54:59.042Z,59.99
2022-08-26T20:57:26.582Z,60.62
2022-08-26T20:59:54.805Z,60.88
2022-08-26T21:02:22.039Z,61.49
2022-08-26T21:04:49.246Z,61.68
2022-08-26T21:07:16.618Z,61.10
2022-08-26T21:09:48.541Z,59.71
2022-08-26T21:12:18.815Z,58.78
2022-08-26T21:14:49.538Z,58.74
2022-08-26T21:17:17.007Z,59.39
2022-08-26T21:19:44.535Z,59.78
2022-08-26T21:22:15.016Z,58.62
2022-08-26T21:24:42.455Z,59.24
2022-08-26T21:27:12.181Z,60.52
2022-08-26T21:29:39.717Z,61.31
2022-08-26T21:32:09.672Z,61.82
2022-08-26T21:34:40.132Z,61.37
2022-08-26T21:37:16.902Z,60.17
2022-08-26T21:39:44.513Z,59.28
2022-08-26T21:42:11.724Z,59.70
2022-08-26T21:44:43.520Z,60.27
2022-08-26T21:47:17.433Z,60.63
2022-08-26T21:49:45.052Z,61.13
2022-08-26T21:52:26.947Z,61.24
2022-08-26T21:55:04.809Z,61.95
2022-08-26T21:57:38.915Z,63.02
2022-08-26T22:00:08.787Z,61.99
2022-08-26T22:02:37.238Z,60.27
2022-08-26T22:06:10.544Z,60.07
2022-08-26T22:08:38.608Z,60.39
2022-08-26T22:11:09.612Z,60.81
2022-08-26T22:13:39.410Z,61.41
2022-08-26T22:16:09.813Z,62.22
2022-08-26T22:18:39.983Z,62.66
2022-08-26T22:21:11.295Z,63.34
2022-08-26T22:23:39.078Z,63.71
2022-08-26T22:26:07.574Z,63.63
2022-08-26T22:28:38.414Z,62.26
2022-08-26T22:31:12.304Z,61.81
2022-08-26T22:33:40.714Z,61.92
2022-08-26T22:36:08.888Z,62.61
2022-08-26T22:38:36.865Z,62.56
2022-08-26T22:41:08.219Z,62.93
2022-08-26T22:43:36.238Z,63.54
2022-08-26T22:46:04.277Z,63.60
2022-08-26T22:48:31.809Z,64.36
2022-08-26T22:51:02.152Z,63.77
2022-08-26T22:53:29.599Z,61.74
2022-08-26T22:56:00.139Z,60.90
2022-08-26T22:58:32.099Z,61.43
2022-08-26T23:01:02.673Z,61.63
2022-08-26T23:03:30.630Z,62.05
2022-08-26T23:05:58.773Z,62.52
2022-08-26T23:08:27.481Z,62.33
2022-08-26T23:10:54.752Z,63.76
2022-08-26T23:13:22.312Z,63.63
2022-08-26T23:15:50.072Z,62.01
2022-08-26T23:18:17.388Z,58.94
2022-08-26T23:20:44.934Z,61.54
2022-08-26T23:23:15.254Z,62.02
2022-08-26T23:25:42.903Z,62.47
2022-08-26T23:28:10.161Z,63.22
2022-08-26T23:30:38.571Z,61.91
2022-08-26T23:33:06.104Z,63.85
2022-08-26T23:35:33.555Z,63.55
2022-08-26T23:38:02.763Z,61.66
2022-08-26T23:40:33.796Z,61.38
2022-08-26T23:43:05.567Z,61.47
2022-08-26T23:45:33.607Z,61.88
2022-08-26T23:48:01.002Z,62.29
2022-08-26T23:50:48.591Z,62.81
2022-08-26T23:53:22.674Z,60.39
2022-08-26T23:55:51.406Z,60.79
2022-08-26T23:58:19.550Z,62.98
